createdAt,value
2022-11-05T00:00:33.048Z,5.80
2022-11-05T00:03:19.271Z,5.80
2022-11-05T00:06:08.296Z,5.80
2022-11-05T00:08:54.628Z,5.90
2022-11-05T00:11:41.974Z,5.80
2022-11-05T00:14:28.119Z,5.70
2022-11-05T00:16:55.431Z,5.70
2022-11-05T00:19:22.658Z,5.90
2022-11-05T00:22:08.372Z,5.90
2022-11-05T00:25:04.919Z,5.80
2022-11-05T00:27:34.159Z,5.80
2022-11-05T00:30:05.148Z,5.80
2022-11-05T00:32:32.802Z,5.80
2022-11-05T00:35:00.152Z,5.80
2022-11-05T00:37:28.627Z,5.80
2022-11-05T00:39:55.893Z,5.70
2022-11-05T00:42:41.780Z,5.70
2022-11-05T00:45:10.036Z,5.60
2022-11-05T00:47:58.309Z,5.50
2022-11-05T00:50:26.634Z,5.50
2022-11-05T00:52:56.280Z,5.40
2022-11-05T00:55:24.825Z,5.30
2022-11-05T00:57:52.134Z,5.40
2022-11-05T01:00:19.663Z,5.30
2022-11-05T01:02:47.281Z,5.30
2022-11-05T01:05:14.732Z,5.30
2022-11-05T01:07:41.978Z,5.30
2022-11-05T01:10:09.530Z,5.30
2022-11-05T01:12:36.859Z,5.30
2022-11-05T01:15:04.815Z,5.30
2022-11-05T01:17:32.116Z,5.20
2022-11-05T01:19:59.383Z,5.20
2022-11-05T01:22:26.922Z,5.30
2022-11-05T01:24:54.185Z,5.20
2022-11-05T01:27:21.467Z,5.20
2022-11-05T01:29:48.830Z,5.30
2022-11-05T01:32:16.056Z,5.20
2022-11-05T01:34:43.379Z,5.10
2022-11-05T01:37:10.769Z,5.10
2022-11-05T01:39:38.047Z,5.10
2022-11-05T01:42:15.450Z,5.00
2022-11-05T01:45:02.888Z,5.00
2022-11-05T01:48:12.808Z,5.00
2022-11-05T01:50:51.921Z,5.00
2022-11-05T01:53:25.949Z,5.00
2022-11-05T01:56:22.225Z,5.00
2022-11-05T01:59:03.446Z,5.00
2022-11-05T02:01:31.433Z,5.00
2022-11-05T02:04:06.580Z,4.90
2022-11-05T02:06:42.425Z,4.90
2022-11-05T02:09:16.586Z,4.80
2022-11-05T02:11:44.085Z,4.90
2022-11-05T02:14:11.356Z,5.00
2022-11-05T02:16:41.645Z,5.00
2022-11-05T02:19:57.149Z,5.00
2022-11-05T02:22:44.741Z,4.90
2022-11-05T02:25:34.960Z,5.00
2022-11-05T02:28:19.786Z,5.20
2022-11-05T02:31:10.118Z,5.40
2022-11-05T02:33:56.912Z,5.50
2022-11-05T02:36:34.473Z,5.60
2022-11-05T02:39:23.591Z,5.40
2022-11-05T02:42:05.207Z,5.20
2022-11-05T02:44:41.241Z,5.00
2022-11-05T02:47:16.968Z,4.90
2022-11-05T02:50:05.777Z,4.80
2022-11-05T02:53:16.299Z,4.80
2022-11-05T02:55:52.211Z,4.70
2022-11-05T02:58:19.521Z,4.60
2022-11-05T03:00:57.680Z,4.60
2022-11-05T03:03:39.399Z,4.60
2022-11-05T03:06:18.401Z,4.60
2022-11-05T03:09:06.980Z,4.60
2022-11-05T03:12:00.975Z,4.60
2022-11-05T03:15:01.159Z,4.50
2022-11-05T03:17:37.778Z,4.40
2022-11-05T03:20:20.608Z,4.40
2022-11-05T03:22:51.620Z,4.40
2022-11-05T03:25:22.647Z,4.30
2022-11-05T03:27:56.167Z,4.20
2022-11-05T03:30:25.173Z,4.20
2022-11-05T03:32:59.226Z,4.20
2022-11-05T03:35:34.989Z,4.30
2022-11-05T03:38:06.550Z,4.40
2022-11-05T03:40:36.586Z,4.50
2022-11-05T03:43:08.133Z,4.60
2022-11-05T03:45:43.213Z,4.70
2022-11-05T03:48:12.705Z,4.60
2022-11-05T03:51:06.196Z,4.60
2022-11-05T03:53:41.039Z,4.50
2022-11-05T03:56:31.388Z,4.40
2022-11-05T03:59:00.288Z,4.50
2022-11-05T04:01:28.681Z,4.50
2022-11-05T04:03:56.305Z,4.50
2022-11-05T04:06:42.023Z,4.50
2022-11-05T04:09:29.000Z,4.70
2022-11-05T04:12:14.713Z,4.70
2022-11-05T04:14:42.074Z,4.80
2022-11-05T04:17:09.933Z,4.70
2022-11-05T04:20:03.515Z,4.70
2022-11-05T04:22:52.267Z,4.80
2022-11-05T04:25:20.348Z,4.80
2022-11-05T04:27:48.438Z,4.90
2022-11-05T04:30:21.613Z,4.80
2022-11-05T04:33:11.426Z,4.70
2022-11-05T04:35:41.931Z,4.50
2022-11-05T04:38:12.003Z,4.50
2022-11-05T04:40:39.282Z,4.50
2022-11-05T04:43:13.571Z,4.40
2022-11-05T04:45:42.943Z,4.40
2022-11-05T04:48:10.772Z,4.50
2022-11-05T04:50:38.165Z,4.40
2022-11-05T04:53:05.460Z,4.40
2022-11-05T04:55:32.745Z,4.40
2022-11-05T04:58:00.007Z,4.40
2022-11-05T05:00:27.442Z,4.40
2022-11-05T05:02:54.765Z,4.40
2022-11-05T05:05:22.998Z,4.30
2022-11-05T05:07:50.211Z,4.30
2022-11-05T05:10:17.567Z,4.40
2022-11-05T05:12:44.803Z,4.40
2022-11-05T05:15:12.096Z,4.30
2022-11-05T05:17:39.310Z,4.40
2022-11-05T05:20:25.534Z,4.40
2022-11-05T05:22:54.273Z,4.30
2022-11-05T05:25:22.427Z,4.30
2022-11-05T05:27:49.690Z,4.20
2022-11-05T05:30:17.131Z,4.20
2022-11-05T05:32:44.398Z,4.20
2022-11-05T05:35:12.069Z,4.10
2022-11-05T05:37:39.372Z,4.00
2022-11-05T05:40:07.748Z,4.00
2022-11-05T05:42:40.220Z,4.00
2022-11-05T05:45:10.918Z,4.00
2022-11-05T05:47:38.624Z,4.10
2022-11-05T05:50:06.196Z,4.10
2022-11-05T05:52:33.423Z,4.20
2022-11-05T05:55:00.680Z,4.10
2022-11-05T05:57:27.950Z,4.20
2022-11-05T05:59:55.204Z,4.20
2022-11-05T06:02:23.002Z,4.20
2022-11-05T06:04:50.411Z,4.10
2022-11-05T06:07:17.633Z,4.00
2022-11-05T06:09:44.896Z,3.90
2022-11-05T06:12:12.463Z,3.90
2022-11-05T06:14:39.786Z,3.90
2022-11-05T06:17:07.661Z,3.80
2022-11-05T06:19:34.914Z,3.90
2022-11-05T06:22:02.157Z,3.90
2022-11-05T06:24:29.427Z,3.80
2022-11-05T06:26:56.684Z,3.80
2022-11-05T06:29:23.970Z,3.90
2022-11-05T06:31:51.231Z,3.80
2022-11-05T06:34:18.492Z,3.70
2022-11-05T06:36:45.774Z,3.60
2022-11-05T06:39:13.347Z,3.60
2022-11-05T06:42:03.856Z,3.70
2022-11-05T06:44:28.019Z,3.70
2022-11-05T06:46:55.320Z,3.70
2022-11-05T06:49:25.587Z,3.80
2022-11-05T06:51:53.256Z,3.90
2022-11-05T06:54:20.848Z,3.90
2022-11-05T06:56:48.116Z,4.00
2022-11-05T06:59:15.547Z,4.00
2022-11-05T07:01:42.895Z,4.10
2022-11-05T07:04:12.484Z,4.20
2022-11-05T07:06:39.815Z,4.20
2022-11-05T07:09:07.100Z,4.30
2022-11-05T07:11:34.454Z,4.50
2022-11-05T07:14:01.781Z,4.50
2022-11-05T07:16:29.128Z,4.70
2022-11-05T07:18:56.431Z,4.70
2022-11-05T07:21:23.680Z,4.90
2022-11-05T07:23:51.071Z,5.10
2022-11-05T07:26:18.459Z,5.20
2022-11-05T07:28:45.867Z,5.80
2022-11-05T07:31:13.217Z,6.30
2022-11-05T07:33:40.903Z,6.50
2022-11-05T07:36:08.592Z,6.70
2022-11-05T07:38:35.889Z,6.80
2022-11-05T07:41:03.234Z,6.80
2022-11-05T07:43:30.490Z,6.60
2022-11-05T07:45:57.883Z,6.40
2022-11-05T07:48:25.109Z,6.60
2022-11-05T07:50:55.599Z,6.90
2022-11-05T07:53:22.864Z,7.20
2022-11-05T07:55:52.406Z,7.10
2022-11-05T07:58:19.654Z,7.10
2022-11-05T08:00:47.069Z,7.10
2022-11-05T08:03:19.236Z,7.00
2022-11-05T08:05:48.236Z,7.00
2022-11-05T08:08:17.882Z,7.00
2022-11-05T08:10:45.513Z,7.30
2022-11-05T08:13:13.721Z,7.40
2022-11-05T08:15:42.625Z,8.00
2022-11-05T08:18:15.213Z,9.60
2022-11-05T08:20:43.840Z,11.20
2022-11-05T08:23:11.734Z,11.50
2022-11-05T08:25:39.825Z,11.50
2022-11-05T08:28:11.152Z,11.30
2022-11-05T08:30:38.537Z,11.70
2022-11-05T08:33:12.003Z,12.00
2022-11-05T08:35:40.140Z,12.30
2022-11-05T08:38:09.875Z,12.70
2022-11-05T08:40:37.922Z,13.20
2022-11-05T08:43:07.475Z,13.40
2022-11-05T08:45:38.529Z,13.70
2022-11-05T08:48:07.557Z,14.60
2022-11-05T08:50:35.607Z,14.70
2022-11-05T08:53:03.511Z,14.70
2022-11-05T08:55:30.942Z,15.40
2022-11-05T08:58:00.448Z,15.40
2022-11-05T09:00:30.095Z,15.70
2022-11-05T09:03:01.969Z,16.00
2022-11-05T09:05:30.682Z,16.30
2022-11-05T09:08:01.293Z,16.90
2022-11-05T09:10:29.041Z,17.40
2022-11-05T09:12:56.552Z,17.00
2022-11-05T09:15:24.470Z,17.10
2022-11-05T09:17:52.393Z,17.80
2022-11-05T09:20:19.691Z,18.20
2022-11-05T09:22:47.335Z,18.20
2022-11-05T09:25:17.651Z,17.90
2022-11-05T09:27:45.032Z,18.10
2022-11-05T09:30:13.511Z,18.20
2022-11-05T09:32:43.485Z,18.30
2022-11-05T09:35:10.876Z,18.50
2022-11-05T09:37:38.407Z,19.60
2022-11-05T09:40:06.609Z,19.60
2022-11-05T09:42:44.811Z,18.90
2022-11-05T09:45:21.819Z,19.80
2022-11-05T09:48:04.041Z,21.30
2022-11-05T09:50:36.492Z,21.20
2022-11-05T09:53:04.927Z,21.50
2022-11-05T09:55:56.797Z,21.60
2022-11-05T09:58:43.567Z,19.80
2022-11-05T10:01:16.011Z,20.10
2022-11-05T10:03:49.859Z,21.10
2022-11-05T10:06:22.915Z,22.10
2022-11-05T10:08:59.935Z,21.10
2022-11-05T10:11:43.284Z,19.20
2022-11-05T10:14:16.398Z,19.20
2022-11-05T10:16:50.646Z,20.30
2022-11-05T10:19:24.461Z,21.00
2022-11-05T10:22:18.845Z,21.30
2022-11-05T10:24:49.075Z,19.20
2022-11-05T10:27:36.502Z,18.90
2022-11-05T10:30:04.419Z,18.80
2022-11-05T10:32:35.982Z,18.90
2022-11-05T10:35:07.727Z,19.00
2022-11-05T10:37:40.705Z,18.40
2022-11-05T10:40:40.844Z,16.20
2022-11-05T10:43:28.184Z,14.30
2022-11-05T10:45:58.476Z,13.40
2022-11-05T10:48:52.094Z,12.90
2022-11-05T10:51:19.602Z,12.50
2022-11-05T10:54:02.177Z,12.40
2022-11-05T10:56:38.269Z,12.20
2022-11-05T10:59:26.732Z,12.20
2022-11-05T11:02:15.434Z,11.90
2022-11-05T11:04:42.773Z,11.80
2022-11-05T11:07:22.691Z,11.90
2022-11-05T11:09:51.128Z,12.00
2022-11-05T11:12:27.640Z,12.00
2022-11-05T11:15:16.571Z,12.00
2022-11-05T11:17:43.863Z,12.20
2022-11-05T11:20:33.998Z,12.30
2022-11-05T11:23:15.838Z,12.50
2022-11-05T11:25:52.681Z,12.60
2022-11-05T11:28:29.504Z,12.90
2022-11-05T11:31:20.907Z,12.80
2022-11-05T11:33:51.702Z,12.80
2022-11-05T11:36:24.830Z,12.80
2022-11-05T11:39:00.103Z,12.80
2022-11-05T11:41:32.564Z,12.70
2022-11-05T11:44:09.895Z,12.80
2022-11-05T11:46:37.573Z,12.80
2022-11-05T11:49:06.942Z,12.80
2022-11-05T11:51:49.477Z,12.90
2022-11-05T11:54:28.632Z,13.00
2022-11-05T11:56:56.422Z,12.80
2022-11-05T11:59:53.963Z,12.70
2022-11-05T12:02:32.016Z,12.80
2022-11-05T12:05:23.028Z,12.60
2022-11-05T12:07:57.947Z,12.50
2022-11-05T12:10:39.298Z,12.60
2022-11-05T12:13:21.696Z,12.60
2022-11-05T12:15:53.573Z,12.60
2022-11-05T12:18:49.804Z,12.50
2022-11-05T12:21:41.058Z,12.60
2022-11-05T12:24:33.839Z,12.30
2022-11-05T12:27:36.033Z,12.40
2022-11-05T12:30:12.176Z,12.30
2022-11-05T12:33:01.039Z,12.20
2022-11-05T12:35:47.007Z,12.20
2022-11-05T12:38:32.512Z,12.30
2022-11-05T12:41:11.038Z,12.50
2022-11-05T12:44:03.834Z,12.50
2022-11-05T12:46:37.075Z,12.50
2022-11-05T12:49:42.804Z,12.50
2022-11-05T12:52:27.561Z,12.30
2022-11-05T12:54:54.754Z,12.40
2022-11-05T12:57:23.503Z,12.40
2022-11-05T12:59:54.735Z,12.30
2022-11-05T13:02:40.343Z,12.30
2022-11-05T13:05:45.631Z,12.30
2022-11-05T13:08:22.919Z,12.30
2022-11-05T13:11:06.734Z,12.20
2022-11-05T13:13:45.799Z,12.20
2022-11-05T13:16:22.573Z,12.20
2022-11-05T13:19:02.886Z,12.40
2022-11-05T13:21:31.179Z,12.40
2022-11-05T13:24:27.060Z,12.40
2022-11-05T13:27:12.451Z,12.20
2022-11-05T13:29:56.900Z,12.10
2022-11-05T13:32:38.463Z,12.10
2022-11-05T13:35:23.667Z,12.20
2022-11-05T13:38:13.646Z,12.20
2022-11-05T13:41:18.444Z,12.10
2022-11-05T13:44:10.133Z,12.00
2022-11-05T13:47:26.406Z,11.90
2022-11-05T13:50:11.958Z,12.00
2022-11-05T13:53:06.453Z,12.00
2022-11-05T13:55:33.695Z,11.90
2022-11-05T13:58:27.527Z,12.00
2022-11-05T14:01:16.451Z,12.00
2022-11-05T14:03:49.418Z,11.90
2022-11-05T14:06:31.653Z,11.90
2022-11-05T14:09:03.001Z,11.80
2022-11-05T14:11:42.829Z,11.80
2022-11-05T14:14:28.019Z,11.70
2022-11-05T14:17:14.382Z,11.70
2022-11-05T14:20:06.264Z,11.60
2022-11-05T14:22:33.473Z,11.60
2022-11-05T14:25:02.924Z,11.60
2022-11-05T14:27:36.439Z,11.50
2022-11-05T14:30:42.341Z,11.50
2022-11-05T14:33:32.838Z,11.50
2022-11-05T14:36:21.904Z,11.50
2022-11-05T14:38:52.068Z,11.50
2022-11-05T14:41:20.699Z,11.50
2022-11-05T14:44:04.716Z,11.50
2022-11-05T14:46:49.175Z,11.50
2022-11-05T14:49:27.061Z,11.50
2022-11-05T14:51:57.799Z,11.40
2022-11-05T14:54:29.511Z,11.30
2022-11-05T14:56:59.474Z,11.30
2022-11-05T14:59:31.616Z,11.20
2022-11-05T15:02:02.944Z,11.20
2022-11-05T15:04:35.811Z,11.10
2022-11-05T15:07:03.075Z,11.20
2022-11-05T15:09:54.223Z,11.20
2022-11-05T15:12:48.990Z,11.20
2022-11-05T15:15:21.429Z,11.20
2022-11-05T15:18:01.546Z,11.30
2022-11-05T15:20:40.477Z,11.30
2022-11-05T15:23:12.834Z,11.20
2022-11-05T15:25:56.074Z,11.10
2022-11-05T15:28:34.419Z,11.00
2022-11-05T15:31:04.959Z,10.90
2022-11-05T15:33:32.806Z,10.80
2022-11-05T15:36:30.469Z,10.70
2022-11-05T15:39:28.031Z,10.50
2022-11-05T15:41:47.098Z,10.40
2022-11-05T15:44:29.098Z,10.30
2022-11-05T15:47:16.642Z,10.20
2022-11-05T15:49:47.056Z,10.10
2022-11-05T15:52:17.154Z,9.90
2022-11-05T15:54:44.553Z,9.80
2022-11-05T15:57:25.582Z,9.80
2022-11-05T15:59:53.110Z,9.90
2022-11-05T16:02:28.771Z,9.90
2022-11-05T16:04:57.525Z,9.80
2022-11-05T16:07:25.427Z,9.70
2022-11-05T16:10:01.328Z,9.80
2022-11-05T16:12:33.068Z,9.80
2022-11-05T16:15:07.971Z,9.80
2022-11-05T16:17:46.923Z,9.80
2022-11-05T16:20:40.617Z,9.90
2022-11-05T16:23:23.735Z,10.00
2022-11-05T16:25:51.576Z,10.00
2022-11-05T16:28:25.543Z,10.00
2022-11-05T16:30:56.979Z,9.90
2022-11-05T16:33:26.928Z,9.90
2022-11-05T16:35:54.244Z,9.90
2022-11-05T16:38:21.965Z,9.90
2022-11-05T16:40:49.192Z,9.90
2022-11-05T16:43:26.417Z,9.90
2022-11-05T16:45:57.776Z,9.80
2022-11-05T16:48:26.057Z,9.90
2022-11-05T16:50:53.540Z,9.90
2022-11-05T16:53:20.883Z,9.90
2022-11-05T16:55:48.322Z,9.80
2022-11-05T16:58:22.690Z,9.80
2022-11-05T17:00:54.601Z,9.80
2022-11-05T17:03:21.858Z,9.70
2022-11-05T17:05:49.182Z,9.60
2022-11-05T17:08:16.591Z,9.70
2022-11-05T17:10:43.979Z,9.70
2022-11-05T17:13:18.684Z,9.70
2022-11-05T17:16:11.453Z,9.80
2022-11-05T17:18:39.339Z,9.70
2022-11-05T17:21:08.602Z,9.80
2022-11-05T17:23:36.634Z,9.80
2022-11-05T17:26:11.204Z,9.80
2022-11-05T17:28:40.464Z,9.80
2022-11-05T17:31:12.093Z,9.80
2022-11-05T17:33:40.176Z,9.80
2022-11-05T17:36:14.208Z,9.90
2022-11-05T17:38:41.968Z,9.80
2022-11-05T17:41:20.756Z,9.90
2022-11-05T17:43:48.516Z,9.90
2022-11-05T17:46:16.875Z,9.90
2022-11-05T17:48:44.827Z,9.90
2022-11-05T17:51:15.077Z,9.90
2022-11-05T17:53:44.387Z,9.90
2022-11-05T17:56:14.035Z,10.00
2022-11-05T17:58:41.700Z,10.00
2022-11-05T18:01:43.126Z,10.00
2022-11-05T18:04:10.953Z,10.00
2022-11-05T18:06:39.777Z,10.00
2022-11-05T18:09:08.539Z,10.00
2022-11-05T18:11:36.945Z,10.00
2022-11-05T18:14:04.835Z,10.00
2022-11-05T18:16:32.446Z,10.00
2022-11-05T18:18:59.792Z,10.10
2022-11-05T18:21:27.114Z,10.10
2022-11-05T18:23:54.469Z,10.10
2022-11-05T18:26:22.013Z,10.10
2022-11-05T18:28:49.298Z,10.00
2022-11-05T18:31:21.326Z,10.10
2022-11-05T18:33:50.025Z,10.10
2022-11-05T18:36:22.241Z,10.00
2022-11-05T18:38:50.488Z,10.00
2022-11-05T18:41:17.929Z,10.00
2022-11-05T18:43:45.300Z,10.00
2022-11-05T18:46:29.340Z,10.00
2022-11-05T18:49:00.811Z,9.90
2022-11-05T18:51:28.431Z,9.90
2022-11-05T18:53:56.038Z,9.80
2022-11-05T18:56:23.468Z,9.80
2022-11-05T18:59:14.833Z,9.90
2022-11-05T19:01:41.106Z,9.80
2022-11-05T19:04:08.826Z,9.90
2022-11-05T19:06:36.920Z,9.90
2022-11-05T19:09:05.673Z,9.80
2022-11-05T19:11:33.019Z,9.80
2022-11-05T19:14:00.626Z,9.70
2022-11-05T19:16:29.753Z,9.70
2022-11-05T19:19:02.287Z,9.70
2022-11-05T19:21:30.360Z,9.60
2022-11-05T19:24:01.365Z,9.50
2022-11-05T19:26:29.664Z,9.50
2022-11-05T19:28:59.147Z,9.40
2022-11-05T19:31:26.985Z,9.40
2022-11-05T19:33:54.573Z,9.40
2022-11-05T19:36:23.253Z,9.30
2022-11-05T19:38:58.665Z,9.30
2022-11-05T19:41:27.052Z,9.20
2022-11-05T19:43:55.577Z,9.20
2022-11-05T19:46:23.816Z,9.10
2022-11-05T19:48:51.823Z,9.20
2022-11-05T19:51:22.375Z,9.30
2022-11-05T19:53:52.457Z,9.40
2022-11-05T19:56:25.659Z,9.40
2022-11-05T19:58:53.660Z,9.40
2022-11-05T20:01:22.698Z,9.50
2022-11-05T20:03:50.441Z,9.40
2022-11-05T20:06:20.661Z,9.40
2022-11-05T20:09:19.493Z,9.40
2022-11-05T20:11:37.717Z,9.40
2022-11-05T20:14:06.135Z,9.30
2022-11-05T20:16:38.212Z,9.40
2022-11-05T20:19:08.001Z,9.40
2022-11-05T20:21:35.435Z,9.40
2022-11-05T20:24:03.279Z,9.30
2022-11-05T20:26:30.956Z,9.30
2022-11-05T20:28:58.327Z,9.30
2022-11-05T20:31:25.796Z,9.30
2022-11-05T20:33:53.652Z,9.20
2022-11-05T20:36:23.544Z,9.20
2022-11-05T20:38:56.554Z,9.20
2022-11-05T20:41:24.565Z,9.20
2022-11-05T20:43:52.251Z,9.20
2022-11-05T20:46:21.829Z,9.20
2022-11-05T20:48:49.733Z,9.30
2022-11-05T20:51:19.372Z,9.20
2022-11-05T20:53:47.279Z,9.10
2022-11-05T20:56:26.754Z,9.00
2022-11-05T20:58:57.818Z,9.00
2022-11-05T21:01:27.394Z,8.90
2022-11-05T21:03:54.937Z,8.90
2022-11-05T21:06:22.600Z,8.80
2022-11-05T21:08:51.409Z,8.90
2022-11-05T21:11:19.948Z,8.90
2022-11-05T21:13:47.469Z,8.80
2022-11-05T21:16:18.470Z,8.70
2022-11-05T21:18:47.039Z,8.80
2022-11-05T21:21:17.056Z,8.80
2022-11-05T21:23:44.402Z,8.80
2022-11-05T21:26:13.679Z,8.80
2022-11-05T21:28:41.852Z,8.80
2022-11-05T21:31:09.832Z,8.60
2022-11-05T21:33:37.621Z,8.40
2022-11-05T21:36:10.429Z,8.40
2022-11-05T21:38:38.205Z,8.30
2022-11-05T21:41:06.619Z,8.10
2022-11-05T21:43:34.240Z,8.10
2022-11-05T21:46:03.021Z,8.10
2022-11-05T21:48:30.982Z,8.30
2022-11-05T21:51:16.889Z,8.40
2022-11-05T21:54:02.788Z,8.40
2022-11-05T21:56:48.504Z,8.40
2022-11-05T21:59:36.836Z,8.40
2022-11-05T22:02:05.343Z,8.40
2022-11-05T22:04:42.744Z,8.40
2022-11-05T22:07:13.986Z,8.50
2022-11-05T22:09:41.317Z,8.50
2022-11-05T22:12:09.198Z,8.60
2022-11-05T22:14:36.871Z,8.70
2022-11-05T22:17:05.036Z,8.80
2022-11-05T22:19:32.930Z,8.80
2022-11-05T22:22:00.369Z,8.90
2022-11-05T22:24:30.465Z,8.90
2022-11-05T22:27:04.313Z,8.90
2022-11-05T22:29:32.001Z,8.90
2022-11-05T22:31:59.615Z,8.90
2022-11-05T22:34:27.087Z,8.90
2022-11-05T22:36:54.660Z,8.80
2022-11-05T22:39:22.339Z,8.90
2022-11-05T22:41:52.796Z,8.90
2022-11-05T22:44:20.475Z,8.90
2022-11-05T22:46:47.725Z,8.80
2022-11-05T22:49:15.054Z,8.80
2022-11-05T22:51:42.342Z,8.80
2022-11-05T22:54:10.467Z,8.80
2022-11-05T22:56:40.354Z,8.90
2022-11-05T22:59:11.948Z,8.90
2022-11-05T23:01:39.734Z,8.80
2022-11-05T23:04:07.157Z,8.80
2022-11-05T23:06:53.227Z,8.70
2022-11-05T23:09:44.257Z,8.60
2022-11-05T23:12:31.853Z,8.60
2022-11-05T23:15:01.758Z,8.50
2022-11-05T23:17:48.058Z,8.30
2022-11-05T23:20:38.343Z,8.20
2022-11-05T23:23:28.877Z,8.10
2022-11-05T23:26:00.275Z,8.20
2022-11-05T23:28:27.572Z,8.00
2022-11-05T23:31:13.269Z,8.00
2022-11-05T23:33:40.512Z,7.90
2022-11-05T23:36:31.050Z,7.80
2022-11-05T23:38:58.278Z,7.80
2022-11-05T23:41:43.832Z,7.90
2022-11-05T23:44:29.708Z,7.80
2022-11-05T23:47:15.650Z,7.70
2022-11-05T23:49:42.891Z,7.70
2022-11-05T23:52:10.164Z,7.70
2022-11-05T23:54:37.399Z,7.70
2022-11-05T23:57:05.201Z,7.60
2022-11-05T23:59:32.477Z,7.70
